Benkelman, Nebraska
Current Conditions -  °F | °C
As of 4:15 AM on Sunday 21 Dec 2014 (Local Time) from KSYF Reporting Station
Clear Clear  
Wind Chill: 22°   Ceiling: Unl
Heat Index: 29°   Visibility: 10mi
Dew Point: 26°   Wind: 7mph
Humidity: 89%   Direction: 260°W
Pressure: 29.81"   Gusts: NA
Location:  40.05°N, 101.53°W
Report Text: KSYF 211115Z AUTO 26006KT 10SM CLR M01/M03 A2981 RMK AO2 T10151031
Loading
Personal Weather Stations






























Interactive Weather Map New forecast layout! Learn more

10-Day Weather Forecast

Advertisements
Track Severe Weather on mobile